createdAt,value
2024-05-09T00:01:51.655Z,19.63
2024-05-09T00:04:21.542Z,25.08
2024-05-09T00:06:51.691Z,26.10
2024-05-09T00:09:26.863Z,22.58
2024-05-09T00:11:57.240Z,23.23
2024-05-09T00:14:27.377Z,20.90
2024-05-09T00:16:57.925Z,20.70
2024-05-09T00:19:28.221Z,24.50
2024-05-09T00:21:58.367Z,21.27
2024-05-09T00:24:31.117Z,23.15
2024-05-09T00:27:01.315Z,25.80
2024-05-09T00:29:31.386Z,29.30
2024-05-09T00:32:01.604Z,27.58
2024-05-09T00:34:31.633Z,26.02
2024-05-09T00:37:04.018Z,25.08
2024-05-09T00:39:36.754Z,21.20
2024-05-09T00:42:09.800Z,24.38
2024-05-09T00:44:39.796Z,17.15
2024-05-09T00:47:11.090Z,21.73
2024-05-09T00:49:41.872Z,22.95
2024-05-09T00:52:12.835Z,19.05
2024-05-09T00:54:45.567Z,14.45
2024-05-09T00:57:15.880Z,17.95
2024-05-09T00:59:46.769Z,18.20
2024-05-09T01:02:18.274Z,24.90
2024-05-09T01:04:49.403Z,18.55
2024-05-09T01:07:20.053Z,17.77
2024-05-09T01:09:55.479Z,18.55
2024-05-09T01:12:26.857Z,18.83
2024-05-09T01:14:56.803Z,18.88
2024-05-09T01:17:27.813Z,19.40
2024-05-09T01:19:58.034Z,25.90
2024-05-09T01:22:28.703Z,18.65
2024-05-09T01:25:01.346Z,21.00
2024-05-09T01:27:33.817Z,21.45
2024-05-09T01:30:06.960Z,26.10
2024-05-09T01:32:39.554Z,26.10
2024-05-09T01:35:12.580Z,23.00
2024-05-09T01:37:43.226Z,28.00
2024-05-09T01:40:21.971Z,28.42
2024-05-09T01:42:55.020Z,26.48
2024-05-09T01:45:25.437Z,27.42
2024-05-09T01:47:57.314Z,25.00
2024-05-09T01:50:38.121Z,29.52
2024-05-09T01:53:56.350Z,28.85
2024-05-09T01:56:29.114Z,31.65
2024-05-09T01:58:59.555Z,34.75
2024-05-09T02:01:29.917Z,63.80
2024-05-09T02:04:20.272Z,49.25
2024-05-09T02:06:50.475Z,55.47
2024-05-09T02:09:20.620Z,55.95
2024-05-09T02:11:53.540Z,58.38
2024-05-09T02:14:23.854Z,66.47
2024-05-09T02:16:56.389Z,61.05
2024-05-09T02:19:27.105Z,60.95
2024-05-09T02:21:57.272Z,68.40
2024-05-09T02:24:27.518Z,74.72
2024-05-09T02:27:00.115Z,64.20
2024-05-09T02:29:30.256Z,72.28
2024-05-09T02:32:00.497Z,138.50
2024-05-09T02:34:28.053Z,67.55
2024-05-09T02:36:58.407Z,59.67
2024-05-09T02:39:25.852Z,69.45
2024-05-09T02:41:55.983Z,99.25
2024-05-09T02:44:26.100Z,102.45
2024-05-09T02:46:56.452Z,87.97
2024-05-09T02:49:23.957Z,95.00
2024-05-09T02:51:54.083Z,126.32
2024-05-09T02:54:21.499Z,83.18
2024-05-09T02:56:51.542Z,181.50
2024-05-09T02:59:18.992Z,91.85
2024-05-09T03:01:52.057Z,125.25
2024-05-09T03:04:20.339Z,86.40
2024-05-09T03:06:50.710Z,108.97
2024-05-09T03:09:18.127Z,233.82
2024-05-09T03:11:48.245Z,217.85
2024-05-09T03:14:16.714Z,97.85
2024-05-09T03:16:46.806Z,98.22
2024-05-09T03:19:17.587Z,130.07
2024-05-09T03:21:47.649Z,202.55
2024-05-09T03:24:17.955Z,260.45
2024-05-09T03:26:48.090Z,86.25
2024-05-09T03:29:15.572Z,170.68
2024-05-09T03:31:45.725Z,220.13
2024-05-09T03:34:13.272Z,149.85
2024-05-09T03:36:47.028Z,139.65
2024-05-09T03:39:17.079Z,164.20
2024-05-09T03:41:47.243Z,203.50
2024-05-09T03:44:17.228Z,186.27
2024-05-09T03:46:44.670Z,121.72
2024-05-09T03:49:14.890Z,108.93
2024-05-09T03:51:45.055Z,184.40
2024-05-09T03:54:15.088Z,134.98
2024-05-09T03:56:42.511Z,170.70
2024-05-09T03:59:12.936Z,129.60
2024-05-09T04:01:40.592Z,209.20
2024-05-09T04:04:11.884Z,216.65
2024-05-09T04:06:39.348Z,199.35
2024-05-09T04:09:12.141Z,218.50
2024-05-09T04:11:39.563Z,162.20
2024-05-09T04:14:09.981Z,98.22
2024-05-09T04:16:37.242Z,152.98
2024-05-09T04:19:07.377Z,105.63
2024-05-09T04:21:34.648Z,220.43
2024-05-09T04:24:04.650Z,173.48
2024-05-09T04:26:34.601Z,99.28
2024-05-09T04:29:04.645Z,89.38
2024-05-09T04:31:36.231Z,75.93
2024-05-09T04:34:06.857Z,151.32
2024-05-09T04:36:44.844Z,74.05
2024-05-09T04:39:15.094Z,75.00
2024-05-09T04:41:45.147Z,60.03
2024-05-09T04:44:15.179Z,116.03
2024-05-09T04:46:43.076Z,140.02
2024-05-09T04:49:13.170Z,134.48
2024-05-09T04:51:42.196Z,116.00
2024-05-09T04:54:22.223Z,87.10
2024-05-09T04:57:00.194Z,203.18
2024-05-09T04:59:30.304Z,154.27
2024-05-09T05:01:57.988Z,122.80
2024-05-09T05:04:28.266Z,103.35
2024-05-09T05:06:56.371Z,96.20
2024-05-09T05:09:27.569Z,80.70
2024-05-09T05:11:59.611Z,67.53
2024-05-09T05:14:30.162Z,123.85
2024-05-09T05:17:00.289Z,96.53
2024-05-09T05:19:27.838Z,74.13
2024-05-09T05:21:57.917Z,99.22
2024-05-09T05:24:25.284Z,65.80
2024-05-09T05:26:55.108Z,67.88
2024-05-09T05:29:22.558Z,105.45
2024-05-09T05:31:55.580Z,76.82
2024-05-09T05:34:23.057Z,72.28
2024-05-09T05:36:52.994Z,81.88
2024-05-09T05:39:20.365Z,61.40
2024-05-09T05:41:50.333Z,94.13
2024-05-09T05:44:18.011Z,88.13
2024-05-09T05:46:48.072Z,79.15
2024-05-09T05:49:18.322Z,181.10
2024-05-09T05:51:48.384Z,97.63
2024-05-09T05:54:15.866Z,97.22
2024-05-09T05:56:45.924Z,76.05
2024-05-09T05:59:15.141Z,79.85
2024-05-09T06:01:45.596Z,69.45
2024-05-09T06:04:13.188Z,88.50
2024-05-09T06:06:45.758Z,103.20
2024-05-09T06:09:13.186Z,65.18
2024-05-09T06:11:43.350Z,87.22
2024-05-09T06:14:10.722Z,77.00
2024-05-09T06:16:40.608Z,60.33
2024-05-09T06:19:08.101Z,140.13
2024-05-09T06:21:38.236Z,74.65
2024-05-09T06:24:08.226Z,85.32
2024-05-09T06:26:38.466Z,75.93
2024-05-09T06:29:05.988Z,68.47
2024-05-09T06:31:35.932Z,57.65
2024-05-09T06:34:03.363Z,55.80
2024-05-09T06:36:33.811Z,50.53
2024-05-09T06:39:01.351Z,42.15
2024-05-09T06:41:34.630Z,55.10
2024-05-09T06:44:02.323Z,66.95
2024-05-09T06:46:32.524Z,51.60
2024-05-09T06:49:04.491Z,44.90
2024-05-09T06:51:34.718Z,45.58
2024-05-09T06:54:02.161Z,46.90
2024-05-09T06:56:35.490Z,50.85
2024-05-09T06:59:03.147Z,41.30
2024-05-09T07:01:33.531Z,51.78
2024-05-09T07:04:01.164Z,40.40
2024-05-09T07:06:31.456Z,45.25
2024-05-09T07:08:58.802Z,47.67
2024-05-09T07:11:28.872Z,43.42
2024-05-09T07:13:58.967Z,43.03
2024-05-09T07:16:28.891Z,36.35
2024-05-09T07:18:56.525Z,35.28
2024-05-09T07:21:26.686Z,37.08
2024-05-09T07:23:54.134Z,34.75
2024-05-09T07:26:24.132Z,33.17
2024-05-09T07:28:51.586Z,30.48
2024-05-09T07:31:28.131Z,31.60
2024-05-09T07:33:55.940Z,31.02
2024-05-09T07:36:28.105Z,28.02
2024-05-09T07:38:55.402Z,28.52
2024-05-09T07:41:25.406Z,25.92
2024-05-09T07:43:52.837Z,27.35
2024-05-09T07:47:20.346Z,28.58
2024-05-09T07:50:54.408Z,27.55
2024-05-09T07:53:26.774Z,29.92
2024-05-09T07:54:50.054Z,29.63
2024-05-09T07:57:20.042Z,26.58
2024-05-09T07:59:47.473Z,30.35
2024-05-09T08:02:20.238Z,24.48
2024-05-09T08:04:48.006Z,23.00
2024-05-09T08:07:19.068Z,23.90
2024-05-09T08:09:46.549Z,24.15
2024-05-09T08:12:16.717Z,23.63
2024-05-09T08:14:43.981Z,24.40
2024-05-09T08:17:14.290Z,24.17
2024-05-09T08:19:44.560Z,25.83
2024-05-09T08:22:14.606Z,25.98
2024-05-09T08:24:42.402Z,24.85
2024-05-09T08:27:12.372Z,23.85
2024-05-09T08:29:39.911Z,24.70
2024-05-09T08:32:12.666Z,24.30
2024-05-09T08:34:40.178Z,27.33
2024-05-09T08:37:19.687Z,24.98
2024-05-09T08:39:49.953Z,24.85
2024-05-09T08:42:20.371Z,23.38
2024-05-09T08:44:48.718Z,24.27
2024-05-09T08:47:18.774Z,24.67
2024-05-09T08:49:48.308Z,26.27
2024-05-09T08:52:20.865Z,25.98
2024-05-09T08:54:48.208Z,23.33
2024-05-09T08:57:18.724Z,25.65
2024-05-09T08:59:50.945Z,24.95
2024-05-09T09:02:21.817Z,23.17
2024-05-09T09:04:53.337Z,21.10
2024-05-09T09:07:26.856Z,21.67
2024-05-09T09:09:54.650Z,20.83
2024-05-09T09:12:24.621Z,21.13
2024-05-09T09:14:52.025Z,21.88
2024-05-09T09:17:22.162Z,21.48
2024-05-09T09:19:49.698Z,21.92
2024-05-09T09:22:19.910Z,19.65
2024-05-09T09:24:50.056Z,20.98
2024-05-09T09:27:20.148Z,19.20
2024-05-09T09:29:47.429Z,19.75
2024-05-09T09:32:18.555Z,19.55
2024-05-09T09:34:48.289Z,19.42
2024-05-09T09:37:22.219Z,19.08
2024-05-09T09:39:52.215Z,20.52
2024-05-09T09:42:23.502Z,20.45
2024-05-09T09:45:01.830Z,17.92
2024-05-09T09:47:39.823Z,19.70
2024-05-09T09:50:14.195Z,19.33
2024-05-09T09:52:47.716Z,18.73
2024-05-09T09:55:17.997Z,19.65
2024-05-09T09:57:48.022Z,19.55
2024-05-09T10:00:24.035Z,20.13
2024-05-09T10:02:57.603Z,19.80
2024-05-09T10:05:25.405Z,18.55
2024-05-09T10:07:55.830Z,16.35
2024-05-09T10:10:32.379Z,17.55
2024-05-09T10:13:03.516Z,18.17
2024-05-09T10:15:31.355Z,18.08
2024-05-09T10:18:07.880Z,17.67
2024-05-09T10:20:42.600Z,17.48
2024-05-09T10:23:26.701Z,18.13
2024-05-09T10:26:01.446Z,17.33
2024-05-09T10:28:31.715Z,19.15
2024-05-09T10:31:08.967Z,18.13
2024-05-09T10:33:42.368Z,17.90
2024-05-09T10:36:13.118Z,18.75
2024-05-09T10:38:43.862Z,16.83
2024-05-09T10:41:13.825Z,16.73
2024-05-09T10:43:44.361Z,18.15
2024-05-09T10:46:12.432Z,16.85
2024-05-09T10:48:44.551Z,18.60
2024-05-09T10:51:12.018Z,19.98
2024-05-09T10:53:45.254Z,18.08
2024-05-09T10:56:17.125Z,17.40
2024-05-09T10:58:48.187Z,17.25
2024-05-09T11:01:16.469Z,16.95
2024-05-09T11:03:49.906Z,16.98
2024-05-09T11:06:18.400Z,17.88
2024-05-09T11:08:48.907Z,16.88
2024-05-09T11:11:19.000Z,16.98
2024-05-09T11:13:49.203Z,16.67
2024-05-09T11:16:19.433Z,16.25
2024-05-09T11:18:56.591Z,15.32
2024-05-09T11:21:24.383Z,16.23
2024-05-09T11:23:54.678Z,15.60
2024-05-09T11:26:25.515Z,16.48
2024-05-09T11:28:55.422Z,17.25
2024-05-09T11:31:22.857Z,18.88
2024-05-09T11:33:53.271Z,18.02
2024-05-09T11:36:20.794Z,17.17
2024-05-09T11:38:50.571Z,17.35
2024-05-09T11:41:18.939Z,18.48
2024-05-09T11:43:51.591Z,17.05
2024-05-09T11:46:19.103Z,16.40
2024-05-09T11:48:51.688Z,16.10
2024-05-09T11:51:19.303Z,17.30
2024-05-09T11:53:51.684Z,16.63
2024-05-09T11:56:18.920Z,17.23
2024-05-09T11:58:51.447Z,17.77
2024-05-09T12:01:20.035Z,18.85
2024-05-09T12:03:51.640Z,17.25
2024-05-09T12:06:19.074Z,16.38
2024-05-09T12:08:48.970Z,17.13
2024-05-09T12:11:16.761Z,17.73
2024-05-09T12:13:46.872Z,17.35
2024-05-09T12:16:16.932Z,17.67
2024-05-09T12:18:47.085Z,17.08
2024-05-09T12:21:17.469Z,17.90
2024-05-09T12:23:47.347Z,16.55
2024-05-09T12:26:15.861Z,16.20
2024-05-09T12:28:46.006Z,16.13
2024-05-09T12:31:13.223Z,16.30
2024-05-09T12:33:45.872Z,16.38
2024-05-09T12:36:13.147Z,18.00
2024-05-09T12:38:43.765Z,18.85
2024-05-09T12:41:11.046Z,16.48
2024-05-09T12:43:41.086Z,17.00
2024-05-09T12:46:08.479Z,15.98
2024-05-09T12:48:38.620Z,16.25
2024-05-09T12:51:08.863Z,15.68
2024-05-09T12:53:39.067Z,15.70
2024-05-09T12:58:37.134Z,15.85
2024-05-09T13:01:04.938Z,15.63
2024-05-09T13:03:35.191Z,16.17
2024-05-09T13:06:02.718Z,16.40
2024-05-09T13:08:36.471Z,17.60
2024-05-09T13:11:03.880Z,16.85
2024-05-09T13:13:33.800Z,15.43
2024-05-09T13:16:01.195Z,16.63
2024-05-09T13:18:33.356Z,15.35
2024-05-09T13:21:00.801Z,15.43
2024-05-09T13:23:32.619Z,14.80
2024-05-09T13:26:07.707Z,15.85
2024-05-09T13:28:45.155Z,14.27
2024-05-09T13:31:16.638Z,14.57
2024-05-09T13:33:52.501Z,13.77
2024-05-09T13:36:22.523Z,15.15
2024-05-09T13:39:19.979Z,15.95
2024-05-09T13:41:55.950Z,15.23
2024-05-09T13:44:30.891Z,14.55
2024-05-09T13:47:00.950Z,15.35
2024-05-09T13:49:46.291Z,15.15
2024-05-09T13:52:15.600Z,14.70
2024-05-09T13:54:46.243Z,13.65
2024-05-09T13:57:16.783Z,14.63
2024-05-09T13:59:49.620Z,16.60
2024-05-09T14:02:17.039Z,16.17
2024-05-09T14:04:47.256Z,16.13
2024-05-09T14:07:14.864Z,14.70
2024-05-09T14:09:44.843Z,14.77
2024-05-09T14:12:12.331Z,15.90
2024-05-09T14:14:44.985Z,14.65
2024-05-09T14:17:12.374Z,13.77
2024-05-09T14:19:42.307Z,16.65
2024-05-09T14:22:10.140Z,15.13
2024-05-09T14:24:40.124Z,15.25
2024-05-09T14:27:07.589Z,14.77
2024-05-09T14:29:38.023Z,14.88
2024-05-09T14:32:08.087Z,14.82
2024-05-09T14:34:38.033Z,14.88
2024-05-09T14:37:05.756Z,14.80
2024-05-09T14:39:35.851Z,14.38
2024-05-09T14:42:03.391Z,14.57
2024-05-09T14:44:33.370Z,13.75
2024-05-09T14:47:00.704Z,14.23
2024-05-09T14:49:33.544Z,12.88
2024-05-09T14:52:01.013Z,13.52
2024-05-09T14:54:31.830Z,14.38
2024-05-09T14:56:59.212Z,13.93
2024-05-09T14:59:29.086Z,14.45
2024-05-09T15:01:56.418Z,14.27
2024-05-09T15:04:27.028Z,14.85
2024-05-09T15:06:57.289Z,14.57
2024-05-09T15:09:27.251Z,13.90
2024-05-09T15:11:54.645Z,15.13
2024-05-09T15:14:24.507Z,12.95
2024-05-09T15:16:51.934Z,12.70
2024-05-09T15:19:21.973Z,12.18
2024-05-09T15:21:49.399Z,14.00
2024-05-09T15:24:22.037Z,13.15
2024-05-09T15:26:49.364Z,13.13
2024-05-09T15:29:19.198Z,13.82
2024-05-09T15:31:46.645Z,12.48
2024-05-09T15:34:16.449Z,13.18
2024-05-09T15:36:44.065Z,13.68
2024-05-09T15:39:14.135Z,13.63
2024-05-09T15:41:44.078Z,12.80
2024-05-09T15:44:14.059Z,12.95
2024-05-09T15:46:41.399Z,11.90
2024-05-09T15:49:11.903Z,12.98
2024-05-09T15:51:39.401Z,14.95
2024-05-09T15:54:09.351Z,12.63
2024-05-09T15:56:36.621Z,13.32
2024-05-09T15:59:11.494Z,13.10
2024-05-09T16:01:39.062Z,12.25
2024-05-09T16:04:10.456Z,12.90
2024-05-09T16:06:37.952Z,12.00
2024-05-09T16:09:08.660Z,12.27
2024-05-09T16:11:35.978Z,12.60
2024-05-09T16:14:05.894Z,12.48
2024-05-09T16:16:35.920Z,11.20
2024-05-09T16:19:05.966Z,12.48
2024-05-09T16:21:33.345Z,11.15
2024-05-09T16:24:03.342Z,11.93
2024-05-09T16:26:30.626Z,11.88
2024-05-09T16:29:00.618Z,11.68
2024-05-09T16:31:28.140Z,11.77
2024-05-09T16:34:00.826Z,11.30
2024-05-09T16:36:28.250Z,12.88
2024-05-09T16:38:58.177Z,12.75
2024-05-09T16:41:25.474Z,12.45
2024-05-09T16:43:55.465Z,11.23
2024-05-09T16:46:23.059Z,11.98
2024-05-09T16:48:53.309Z,11.95
2024-05-09T16:51:23.308Z,11.98
2024-05-09T16:53:53.287Z,11.93
2024-05-09T16:56:23.717Z,12.13
2024-05-09T16:58:53.966Z,12.13
2024-05-09T17:01:23.432Z,11.43
2024-05-09T17:03:53.666Z,10.68
2024-05-09T17:06:29.610Z,10.10
2024-05-09T17:09:15.714Z,9.70
2024-05-09T17:11:45.622Z,10.18
2024-05-09T17:14:16.864Z,9.18
2024-05-09T17:16:54.599Z,10.30
2024-05-09T17:19:26.703Z,10.55
2024-05-09T17:22:01.111Z,10.10
2024-05-09T17:24:31.110Z,9.20
2024-05-09T17:26:58.479Z,9.85
2024-05-09T17:29:28.838Z,7.32
2024-05-09T17:31:56.145Z,9.20
2024-05-09T17:34:27.019Z,9.57
2024-05-09T17:36:54.563Z,8.35
2024-05-09T17:39:27.192Z,7.40
2024-05-09T17:41:54.528Z,8.27
2024-05-09T17:44:24.548Z,8.00
2024-05-09T17:46:51.904Z,8.30
2024-05-09T17:49:22.127Z,8.82
2024-05-09T17:51:52.636Z,9.18
2024-05-09T17:54:22.657Z,8.65
2024-05-09T17:56:53.291Z,8.38
2024-05-09T17:59:23.283Z,7.95
2024-05-09T18:01:50.691Z,7.82
2024-05-09T18:04:20.918Z,9.70
2024-05-09T18:06:48.290Z,8.70
2024-05-09T18:09:18.329Z,8.73
2024-05-09T18:11:48.446Z,15.55
2024-05-09T18:14:18.689Z,17.40
2024-05-09T18:16:48.609Z,20.60
2024-05-09T18:19:16.176Z,23.90
2024-05-09T18:21:46.143Z,24.73
2024-05-09T18:24:13.419Z,24.75
2024-05-09T18:26:43.752Z,23.40
2024-05-09T18:29:11.136Z,24.13
2024-05-09T18:31:43.606Z,22.85
2024-05-09T18:34:13.159Z,24.88
2024-05-09T18:36:43.268Z,23.23
2024-05-09T18:39:11.079Z,23.45
2024-05-09T18:41:40.859Z,23.83
2024-05-09T18:44:08.128Z,27.58
2024-05-09T18:46:37.973Z,27.63
2024-05-09T18:49:08.065Z,28.45
2024-05-09T18:51:37.963Z,28.77
2024-05-09T18:54:05.268Z,30.98
2024-05-09T18:56:35.116Z,30.23
2024-05-09T18:59:02.456Z,32.15
2024-05-09T19:01:32.722Z,31.65
2024-05-09T19:04:00.211Z,30.35
2024-05-09T19:06:32.993Z,31.58
2024-05-09T19:09:02.642Z,31.98
2024-05-09T19:11:32.572Z,32.67
2024-05-09T19:14:04.338Z,32.83
2024-05-09T19:16:34.383Z,33.85
2024-05-09T19:19:03.138Z,35.85
2024-05-09T19:21:36.966Z,33.35
2024-05-09T19:24:05.632Z,38.78
2024-05-09T19:26:35.550Z,39.60
2024-05-09T19:29:02.892Z,39.58
2024-05-09T19:31:32.938Z,39.38
2024-05-09T19:34:00.328Z,40.03
2024-05-09T19:36:30.576Z,38.88
2024-05-09T19:39:02.974Z,40.88
2024-05-09T19:41:32.835Z,38.15
2024-05-09T19:44:00.174Z,42.30
2024-05-09T19:46:30.276Z,43.65
2024-05-09T19:48:58.335Z,41.67
2024-05-09T19:51:28.380Z,42.17
2024-05-09T19:53:55.893Z,40.92
2024-05-09T19:56:28.461Z,42.78
2024-05-09T19:58:56.029Z,43.03
2024-05-09T20:01:25.988Z,41.08
2024-05-09T20:03:56.893Z,42.13
2024-05-09T20:06:29.149Z,40.83
2024-05-09T20:08:58.322Z,42.33
2024-05-09T20:11:34.158Z,40.65
2024-05-09T20:14:01.555Z,43.70
2024-05-09T20:16:31.487Z,46.35
2024-05-09T20:18:58.969Z,42.03
2024-05-09T20:21:28.907Z,43.08
2024-05-09T20:23:56.398Z,44.33
2024-05-09T20:26:28.688Z,43.30
2024-05-09T20:28:59.905Z,44.25
2024-05-09T20:31:29.873Z,43.58
2024-05-09T20:33:57.268Z,42.95
2024-05-09T20:36:27.162Z,41.28
2024-05-09T20:38:55.505Z,46.08
2024-05-09T20:41:25.327Z,43.25
2024-05-09T20:43:55.171Z,45.47
2024-05-09T20:46:27.868Z,47.22
2024-05-09T20:48:56.454Z,42.90
2024-05-09T20:51:27.632Z,46.20
2024-05-09T20:53:56.174Z,45.20
2024-05-09T20:56:26.285Z,42.40
2024-05-09T20:58:53.667Z,47.63
2024-05-09T21:01:23.673Z,43.13
2024-05-09T21:03:53.814Z,45.55
2024-05-09T21:06:24.039Z,45.10
2024-05-09T21:08:51.380Z,46.85
2024-05-09T21:11:22.914Z,50.38
2024-05-09T21:13:51.003Z,47.58
2024-05-09T21:16:21.026Z,50.08
2024-05-09T21:18:48.444Z,46.05
2024-05-09T21:21:20.965Z,49.38
2024-05-09T21:23:48.288Z,48.85
2024-05-09T21:26:19.591Z,49.08
2024-05-09T21:28:46.908Z,51.75
2024-05-09T21:31:16.897Z,48.55
2024-05-09T21:33:44.518Z,47.60
2024-05-09T21:36:14.539Z,53.00
2024-05-09T21:38:44.440Z,53.53
2024-05-09T21:41:14.397Z,59.25
2024-05-09T21:43:41.697Z,55.55
2024-05-09T21:46:11.694Z,52.60
2024-05-09T21:48:39.401Z,52.28
2024-05-09T21:51:16.182Z,50.58
2024-05-09T21:53:46.012Z,49.13
2024-05-09T21:56:15.943Z,53.72
2024-05-09T21:58:43.161Z,48.72
2024-05-09T22:01:13.126Z,53.33
2024-05-09T22:03:40.632Z,63.97
2024-05-09T22:06:11.273Z,58.97
2024-05-09T22:08:38.481Z,58.95
2024-05-09T22:11:11.323Z,59.50
2024-05-09T22:13:38.680Z,56.05
2024-05-09T22:16:09.839Z,55.78
2024-05-09T22:18:37.214Z,60.30
2024-05-09T22:21:07.329Z,60.33
2024-05-09T22:23:34.676Z,61.55
2024-05-09T22:26:04.550Z,56.65
2024-05-09T22:28:34.602Z,61.05
2024-05-09T22:31:04.572Z,57.45
2024-05-09T22:33:32.171Z,55.05
2024-05-09T22:36:02.362Z,61.25
2024-05-09T22:38:30.132Z,55.92
2024-05-09T22:41:00.104Z,61.60
2024-05-09T22:43:27.481Z,56.95
2024-05-09T22:46:00.019Z,57.30
2024-05-09T22:48:27.627Z,58.20
2024-05-09T22:50:57.714Z,65.22
2024-05-09T22:53:25.623Z,54.08
2024-05-09T22:55:55.911Z,55.25
2024-05-09T22:58:24.020Z,55.63
2024-05-09T23:00:59.333Z,53.65
2024-05-09T23:03:26.806Z,55.70
2024-05-09T23:05:56.712Z,58.40
2024-05-09T23:08:24.132Z,54.08
2024-05-09T23:10:54.161Z,55.78
2024-05-09T23:13:21.441Z,60.45
2024-05-09T23:15:51.497Z,57.88
2024-05-09T23:18:21.762Z,57.33
2024-05-09T23:20:51.922Z,60.92
2024-05-09T23:23:19.275Z,54.78
2024-05-09T23:25:49.125Z,55.95
2024-05-09T23:28:16.453Z,57.47
2024-05-09T23:30:46.371Z,54.78
2024-05-09T23:33:14.334Z,56.58
2024-05-09T23:35:47.153Z,55.42
2024-05-09T23:38:14.751Z,54.05
2024-05-09T23:40:44.725Z,59.70
2024-05-09T23:43:12.856Z,49.90
2024-05-09T23:45:43.468Z,52.90
2024-05-09T23:48:11.492Z,57.15
2024-05-09T23:50:41.850Z,53.35
2024-05-09T23:53:14.288Z,51.50
2024-05-09T23:55:44.367Z,52.80
2024-05-09T23:58:11.999Z,51.17
